Meath Environmental Platform

Observations for Trim Patrick St

Time AQI Temp °C Hum % Pres Pa CO μg/m³ H₂S μg/m³ NO μg/m³ NO₂ μg/m³ O₃ μg/m³ SO₂ μg/m³ PM1 μg/m³ PM2.5 μg/m³ PM10 μg/m³
Friday 31 July 2026
11:04 1 22.1 46 68,782 0 10.3 1.38 12.5 89.39 5.25 2.86 8.99 9.89
11:03 2 22.2 46 68,794 0 11.54 1.38 12.64 91.73 5.42 2.86 8.23 9.05
11:02 1 22.2 45 68,778 0 11.7 1.4 13.08 96.34 6.1 3.71 9.03 9.93
11:01 2 22.3 45 68,786 0 8.63 1.41 12.1 95.33 5.18 2 7.5 8.25
11:00 2 22.4 45 68,800 0 8.55 1.54 9.67 96.81 6.06 2.86 9.06 9.97
10:59 1 22.4 44 68,792 0 9.44 1.55 10.22 90.59 6.33 2.86 8.32 9.15
10:58 2 22.5 44 68,782 0 9.15 1.5 9.69 100.38 5.9 2.86 8.34 9.17
10:57 1 22.6 44 68,770 0 6.71 1.46 9.58 95.71 6.17 2.86 9.13 10.04
10:56 1 22.7 43 68,780 0 4.62 1.46 9.19 99.66 6.15 3.71 9.17 10.09
10:55 1 22.8 43 68,796 0 3.82 1.45 9.17 104.27 6.03 2.86 8.4 9.24
10:54 2 22.9 43 68,788 0 3.79 1.45 8.47 108.29 5.83 3.71 9.2 10.12
10:53 1 23 42 68,808 0 2.41 1.57 6.8 97.61 6.61 3.71 9.24 10.16
10:52 1 23.1 42 68,833 0 1 1.5 6.86 79.44 6.81 2.86 8.46 9.31
10:51 1 23.2 42 68,835 0 0 1.49 8.74 93.43 5.8 2.86 8.51 9.36
10:50 1 23.4 42 68,839 0 0 1.59 8.26 79.45 7.33 2.86 9.26 10.18
10:49 1 23.5 42 68,817 0 0 1.97 7.47 89.51 6.31 3.71 10.05 11.05
10:48 1 23.6 41 68,813 0 0 1.6 5.72 72.91 6.42 2.86 9.31 10.25
10:47 1 23.7 41 68,811 0 0 1.85 5.92 72.81 5.52 2.86 8.55 9.41
10:46 1 23.8 41 68,806 0 0 2.21 6.33 69.24 6.24 2.86 8.53 9.38
10:45 1 23.9 42 68,825 0 0 2.08 5.68 68.95 7.3 3.71 8.51 9.36